Time;durP1;ratioP1;P1;durP2;ratioP2;P2;SDS_P1;SDS_P2;PMS_P1;PMS_P2;Temp;Humidity;BMP_temperature;BMP_pressure;BME280_temperature;BME280_humidity;BME280_pressure;Samples;Min_cycle;Max_cycle;Signal;HPM_P1;HPM_P2
2023/04/03 00:01:29;;;;;;;9.83;5.30;;;;;;;9.17;69.81;99784.21;1772703;80;21232;-57
2023/04/03 00:04:36;;;;;;;6.20;4.72;;;;;;;9.18;69.81;99773.64;1772846;80;21174;-57
2023/04/03 00:07:41;;;;;;;8.55;5.20;;;;;;;9.19;69.82;99772.09;1771847;81;21264;-57
2023/04/03 00:10:47;;;;;;;7.17;5.10;;;;;;;9.21;69.81;99772.77;1772850;80;21204;-58
2023/04/03 00:13:54;;;;;;;7.90;5.35;;;;;;;9.21;69.81;99764.58;1772785;80;21193;-58
2023/04/03 00:17:01;;;;;;;8.48;5.45;;;;;;;9.22;69.83;99764.90;1772733;81;21225;-58
2023/04/03 00:20:11;;;;;;;6.08;4.65;;;;;;;9.24;69.86;99753.80;1772887;80;21269;-59
2023/04/03 00:23:18;;;;;;;7.17;5.33;;;;;;;9.25;69.89;99752.23;1772793;80;21300;-58
2023/04/03 00:26:24;;;;;;;6.92;5.17;;;;;;;9.25;69.88;99753.61;1735833;81;21737;-57
2023/04/03 00:29:31;;;;;;;7.42;5.10;;;;;;;9.25;69.90;99744.05;1735741;81;21208;-58
2023/04/03 00:32:36;;;;;;;7.37;4.83;;;;;;;9.26;69.91;99752.56;1735936;82;21212;-58
2023/04/03 00:35:43;;;;;;;8.08;5.47;;;;;;;9.28;69.95;99754.60;1735782;82;21199;-56
2023/04/03 00:38:49;;;;;;;8.13;5.40;;;;;;;9.29;69.93;99747.27;1735732;82;21212;-57
2023/04/03 00:41:55;;;;;;;9.15;4.90;;;;;;;9.27;69.89;99737.89;1735716;81;21206;-58
2023/04/03 00:45:10;;;;;;;7.28;5.10;;;;;;;9.26;69.84;99738.08;1735849;82;21558;-56
2023/04/03 00:48:19;;;;;;;7.87;5.40;;;;;;;9.25;69.89;99736.36;1735825;82;21188;-57
2023/04/03 00:51:30;;;;;;;7.17;4.37;;;;;;;9.25;69.95;99726.80;1735932;81;21184;-57
2023/04/03 00:54:36;;;;;;;6.80;4.67;;;;;;;9.25;69.98;99724.08;1735823;81;21236;-57
2023/04/03 00:57:42;;;;;;;7.08;4.65;;;;;;;9.24;69.95;99734.17;1735824;82;21248;-55
2023/04/03 01:00:53;;;;;;;7.33;4.75;;;;;;;9.23;69.92;99726.16;1735825;82;21196;-56
2023/04/03 01:03:59;;;;;;;5.67;4.70;;;;;;;9.21;69.90;99729.08;1735727;82;21173;-56
2023/04/03 01:07:09;;;;;;;6.78;4.83;;;;;;;9.17;69.81;99717.31;1735806;82;21200;-57
2023/04/03 01:10:19;;;;;;;6.70;4.75;;;;;;;9.12;69.85;99715.67;1735671;81;21181;-57
2023/04/03 01:13:36;;;;;;;7.62;4.90;;;;;;;9.06;69.80;99711.27;1735823;82;21196;-58
2023/04/03 01:16:42;;;;;;;6.47;4.33;;;;;;;9.03;69.87;99710.78;1735791;81;21207;-56
2023/04/03 01:19:47;;;;;;;7.60;4.30;;;;;;;8.99;69.88;99710.83;1736587;82;21717;-57
2023/04/03 01:23:18;;;;;;;7.05;4.28;;;;;;;8.95;69.91;99701.28;1735919;82;21184;-56
2023/04/03 01:26:25;;;;;;;7.90;4.28;;;;;;;8.93;69.97;99701.47;1759439;80;21757;-57
2023/04/03 01:29:32;;;;;;;8.55;3.77;;;;;;;8.93;70.08;99702.84;1735950;82;21208;-57
2023/04/03 01:32:38;;;;;;;6.87;4.10;;;;;;;8.95;70.19;99702.14;1736070;81;21193;-58
2023/04/03 01:35:43;;;;;;;6.22;4.08;;;;;;;8.99;70.24;99702.64;1698884;84;21722;-57
2023/04/03 01:38:49;;;;;;;6.90;3.95;;;;;;;9.00;70.30;99695.63;1736075;82;21180;-57
2023/04/03 01:41:54;;;;;;;6.78;3.92;;;;;;;9.03;70.30;99703.95;1735913;81;21272;-57
2023/04/03 01:44:55;;;;;;;6.67;3.90;;;;;;;9.03;70.30;99698.50;1698822;83;21184;-57
2023/04/03 01:48:03;;;;;;;5.55;3.50;;;;;;;9.03;70.26;99689.80;1735713;81;21177;-56
2023/04/03 01:51:09;;;;;;;7.45;4.12;;;;;;;9.02;70.26;99694.08;1722352;83;21210;-56
2023/04/03 01:54:16;;;;;;;7.03;4.10;;;;;;;9.00;70.24;99693.41;1720668;83;21209;-56
2023/04/03 01:57:23;;;;;;;6.37;3.95;;;;;;;9.00;70.33;99686.58;1720415;83;21225;-56
2023/04/03 02:00:29;;;;;;;7.17;4.55;;;;;;;8.98;70.33;99685.40;1771096;81;21181;-56
2023/04/03 02:03:37;;;;;;;7.62;4.50;;;;;;;8.99;70.41;99682.16;1771710;79;21189;-57
2023/04/03 02:06:45;;;;;;;8.00;4.92;;;;;;;9.01;70.43;99681.45;1736385;82;21354;-55
2023/04/03 02:09:52;;;;;;;9.58;5.05;;;;;;;9.00;70.46;99681.13;1736108;81;21244;-58
2023/04/03 02:12:58;;;;;;;6.60;4.87;;;;;;;9.01;70.39;99686.91;1698896;84;21732;-57
2023/04/03 02:16:04;;;;;;;8.20;5.00;;;;;;;9.00;70.41;99681.13;1735684;82;21173;-56
2023/04/03 02:19:10;;;;;;;6.70;4.97;;;;;;;9.02;70.52;99679.89;1736081;82;21382;-56
2023/04/03 02:22:17;;;;;;;8.13;5.10;;;;;;;9.04;70.59;99679.20;1735987;82;21212;-57
2023/04/03 02:25:24;;;;;;;7.83;4.50;;;;;;;9.08;70.66;99670.96;1735949;81;21362;-56
2023/04/03 02:28:29;;;;;;;6.60;4.67;;;;;;;9.12;70.68;99682.38;1726792;83;21182;-57
2023/04/03 02:31:37;;;;;;;8.20;4.90;;;;;;;9.16;70.64;99678.26;1772682;80;21415;-57
2023/04/03 02:34:44;;;;;;;8.93;4.47;;;;;;;9.16;70.60;99674.16;1772781;81;21268;-57
2023/04/03 02:37:49;;;;;;;5.92;4.55;;;;;;;9.16;70.62;99672.80;1768996;81;21205;-57
2023/04/03 02:40:55;;;;;;;10.18;5.65;;;;;;;9.17;70.62;99670.89;1736146;82;21216;-56
2023/04/03 02:44:02;;;;;;;7.03;4.25;;;;;;;9.17;70.58;99667.66;1772833;80;21220;-55
2023/04/03 02:47:09;;;;;;;7.95;4.70;;;;;;;9.17;70.61;99659.97;1735693;81;21208;-57
2023/04/03 02:50:15;;;;;;;7.70;5.22;;;;;;;9.15;70.61;99660.16;1772741;79;21331;-58
2023/04/03 02:53:21;;;;;;;7.37;4.55;;;;;;;9.16;70.62;99665.97;1773072;80;21217;-58
2023/04/03 02:56:29;;;;;;;8.00;4.60;;;;;;;9.16;70.67;99659.14;1736049;81;21195;-58
2023/04/03 02:59:35;;;;;;;8.55;5.05;;;;;;;9.18;70.69;99659.78;1773274;80;21189;-58
2023/04/03 03:02:42;;;;;;;9.08;4.87;;;;;;;9.20;70.75;99657.73;1772751;80;21228;-57
2023/04/03 03:05:48;;;;;;;9.05;5.10;;;;;;;9.24;70.79;99660.95;1764002;81;21237;-57
2023/04/03 03:08:55;;;;;;;7.97;4.83;;;;;;;9.26;70.79;99658.34;1772786;80;21245;-57
2023/04/03 03:11:59;;;;;;;8.60;4.80;;;;;;;9.29;70.82;99663.47;1771789;81;21264;-57
2023/04/03 03:15:06;;;;;;;7.50;4.75;;;;;;;9.30;70.74;99659.69;1735783;81;21191;-58
2023/04/03 03:18:14;;;;;;;10.50;5.40;;;;;;;9.30;70.73;99663.79;1772963;80;21201;-58
2023/04/03 03:21:20;;;;;;;9.90;5.47;;;;;;;9.30;70.68;99661.05;1771725;81;21229;-58
2023/04/03 03:24:26;;;;;;;10.08;5.37;;;;;;;9.32;70.72;99658.14;1735800;82;21192;-57
2023/04/03 03:27:33;;;;;;;11.08;5.25;;;;;;;9.33;70.75;99651.13;1772381;79;21260;-57
2023/04/03 03:30:39;;;;;;;9.83;5.15;;;;;;;9.35;70.79;99651.80;1743587;81;21176;-58
2023/04/03 03:33:46;;;;;;;9.45;5.08;;;;;;;9.38;70.80;99650.05;1773311;80;21233;-58
2023/04/03 03:36:53;;;;;;;7.08;4.80;;;;;;;9.38;70.68;99654.16;1773199;79;21228;-59
2023/04/03 03:40:00;;;;;;;5.47;4.30;;;;;;;9.36;70.66;99652.63;1773264;80;21307;-58
2023/04/03 03:43:05;;;;;;;8.53;5.28;;;;;;;9.36;70.71;99653.98;1763832;80;21201;-58
2023/04/03 03:46:11;;;;;;;6.37;5.10;;;;;;;9.38;70.77;99654.16;1773239;80;21213;-57
2023/04/03 03:49:17;;;;;;;9.15;5.28;;;;;;;9.39;70.73;99649.01;1773136;80;21178;-57
2023/04/03 03:52:23;;;;;;;7.37;5.15;;;;;;;9.40;70.73;99658.92;1773408;80;21351;-57
2023/04/03 03:55:31;;;;;;;9.60;5.83;;;;;;;9.41;70.78;99652.41;1772890;80;21260;-58
2023/04/03 03:58:38;;;;;;;8.28;4.95;;;;;;;9.43;70.78;99656.32;1773552;80;21302;-58
2023/04/03 04:01:45;;;;;;;8.35;5.60;;;;;;;9.46;70.74;99654.07;1772643;79;21876;-58
2023/04/03 04:04:52;;;;;;;11.63;7.92;;;;;;;9.45;70.69;99652.89;1773388;80;21832;-58
2023/04/03 04:07:57;;;;;;;24.65;15.90;;;;;;;9.39;70.47;99659.94;1772586;80;21201;-57
2023/04/03 04:11:04;;;;;;;13.32;8.95;;;;;;;9.32;70.49;99657.63;1773123;80;21217;-57
2023/04/03 04:14:13;;;;;;;12.60;6.65;;;;;;;9.33;70.59;99663.41;1773406;80;21170;-58
2023/04/03 04:17:22;;;;;;;12.25;7.15;;;;;;;9.36;70.72;99655.35;1771193;80;21340;-58
2023/04/03 04:20:27;;;;;;;9.35;6.58;;;;;;;9.36;70.69;99660.31;1773429;80;21220;-58
2023/04/03 04:23:34;;;;;;;10.20;6.42;;;;;;;9.36;70.68;99654.84;1772906;80;21181;-58
2023/04/03 04:26:41;;;;;;;9.98;7.37;;;;;;;9.34;70.65;99655.55;1771888;80;21628;-58
2023/04/03 04:29:46;;;;;;;9.65;6.25;;;;;;;9.32;70.64;99652.67;1771196;79;21185;-58
2023/04/03 04:32:52;;;;;;;12.53;6.62;;;;;;;9.28;70.65;99652.19;1771256;80;21189;-58
2023/04/03 04:35:59;;;;;;;8.70;6.10;;;;;;;9.29;70.73;99651.69;1771430;80;21212;-58
2023/04/03 04:39:07;;;;;;;8.38;5.62;;;;;;;9.28;70.76;99645.88;1771090;80;21177;-59
2023/04/03 04:42:14;;;;;;;12.45;7.58;;;;;;;9.26;70.75;99656.98;1771735;80;21395;-57
2023/04/03 04:45:21;;;;;;;8.63;6.62;;;;;;;9.25;70.77;99652.56;1779139;79;21181;-58
2023/04/03 04:48:28;;;;;;;39.75;20.08;;;;;;;9.25;70.83;99659.39;1802334;79;21196;-58
2023/04/03 04:51:36;;;;;;;16.70;9.08;;;;;;;9.28;70.87;99658.16;1771283;80;21192;-58
2023/04/03 04:54:45;;;;;;;19.55;11.10;;;;;;;9.28;70.88;99653.56;1779779;79;21183;-58
2023/04/03 04:57:51;;;;;;;17.73;10.10;;;;;;;9.27;70.89;99655.11;1773217;79;21195;-59
2023/04/03 05:01:07;;;;;;;20.75;11.30;;;;;;;9.25;70.93;99651.20;1776415;79;21321;-59
2023/04/03 05:04:21;;;;;;;15.43;8.90;;;;;;;9.26;70.95;99658.89;1768564;80;21181;-58
2023/04/03 05:07:29;;;;;;;17.67;10.85;;;;;;;9.24;70.90;99658.22;1768446;81;21193;-58
2023/04/03 05:10:34;;;;;;;12.53;7.78;;;;;;;9.19;70.91;99654.68;1769892;79;22027;-58
2023/04/03 05:13:41;;;;;;;9.73;6.78;;;;;;;9.17;70.93;99654.00;1760023;81;21200;-58
2023/04/03 05:16:48;;;;;;;11.80;7.35;;;;;;;9.14;70.86;99654.38;1776066;79;21236;-58
2023/04/03 05:19:57;;;;;;;11.10;7.17;;;;;;;9.10;70.92;99658.52;1795686;79;21162;-58
2023/04/03 05:23:03;;;;;;;9.88;6.78;;;;;;;9.12;71.01;99663.80;1800669;79;21190;-58
2023/04/03 05:26:10;;;;;;;9.83;7.62;;;;;;;9.14;71.06;99659.84;1800966;79;21275;-57
2023/04/03 05:29:17;;;;;;;12.30;8.03;;;;;;;9.17;71.13;99669.02;1721437;81;21621;-57
2023/04/03 05:32:22;;;;;;;11.40;7.42;;;;;;;9.18;71.12;99665.25;1745820;81;21253;-57
2023/04/03 05:35:45;;;;;;;10.45;7.90;;;;;;;9.22;71.18;99658.91;1729514;82;21246;-58
2023/04/03 05:38:51;;;;;;;9.48;7.33;;;;;;;9.27;71.17;99656.48;1798516;80;21173;-60
2023/04/03 05:42:00;;;;;;;10.38;7.40;;;;;;;9.32;71.26;99663.60;1776757;79;21221;-57
2023/04/03 05:45:06;;;;;;;13.70;8.48;;;;;;;9.37;71.29;99664.73;1770181;79;21213;-58
2023/04/03 05:48:14;;;;;;;11.78;8.25;;;;;;;9.40;71.28;99663.02;1770303;80;21173;-57
2023/04/03 05:51:27;;;;;;;11.15;8.60;;;;;;;9.44;71.28;99667.06;1770644;80;21193;-57
2023/04/03 05:54:37;;;;;;;12.45;8.75;;;;;;;9.41;71.09;99666.06;1769733;79;21666;-57
2023/04/03 05:57:46;;;;;;;11.38;8.60;;;;;;;9.34;71.07;99665.64;1770107;80;21224;-58
2023/04/03 06:00:52;;;;;;;12.03;7.67;;;;;;;9.28;71.14;99664.98;1769215;81;21264;-57
2023/04/03 06:03:59;;;;;;;10.28;7.87;;;;;;;9.27;71.20;99668.26;1770795;80;21201;-59
2023/04/03 06:07:07;;;;;;;13.28;8.75;;;;;;;9.27;71.32;99669.62;1771258;81;21264;-57
2023/04/03 06:10:15;;;;;;;13.18;8.03;;;;;;;9.29;71.39;99675.76;1771346;79;21367;-57
2023/04/03 06:13:20;;;;;;;11.88;7.97;;;;;;;9.30;71.41;99677.45;1770424;79;21209;-58
2023/04/03 06:16:28;;;;;;;11.33;7.75;;;;;;;9.31;71.44;99676.39;1775011;79;21194;-58
2023/04/03 06:19:36;;;;;;;11.95;7.47;;;;;;;9.31;71.43;99681.03;1763756;80;21202;-59
2023/04/03 06:22:41;;;;;;;21.30;15.68;;;;;;;9.32;71.48;99683.58;1770270;80;21287;-57
2023/04/03 06:25:47;;;;;;;12.78;11.40;;;;;;;9.36;71.57;99686.26;1771922;79;21224;-59
2023/04/03 06:28:57;;;;;;;15.58;9.58;;;;;;;9.37;71.55;99685.75;1769473;80;21189;-58
2023/04/03 06:32:03;;;;;;;13.93;9.05;;;;;;;9.40;71.55;99686.74;1769962;79;21280;-58
2023/04/03 06:35:09;;;;;;;10.38;8.58;;;;;;;9.42;71.58;99684.14;1772363;79;21778;-59
2023/04/03 06:38:15;;;;;;;10.13;7.90;;;;;;;9.45;71.63;99682.94;1787123;79;21257;-57
2023/04/03 06:41:21;;;;;;;12.65;8.55;;;;;;;9.47;71.64;99687.17;1779653;79;21205;-58
2023/04/03 06:44:26;;;;;;;12.82;8.23;;;;;;;9.49;71.69;99691.94;1769925;81;21329;-58
2023/04/03 06:47:33;;;;;;;9.20;7.37;;;;;;;9.55;71.73;99692.56;1770520;80;21208;-59
2023/04/03 06:50:39;;;;;;;12.03;8.80;;;;;;;9.63;71.75;99695.20;1776780;78;21169;-59
2023/04/03 06:53:46;;;;;;;11.88;7.90;;;;;;;9.71;71.76;99690.17;1801772;79;21241;-59
2023/04/03 06:56:53;;;;;;;12.33;8.28;;;;;;;9.81;71.79;99690.25;1788624;78;21542;-58
2023/04/03 06:59:59;;;;;;;10.32;7.80;;;;;;;9.89;71.74;99694.25;1796573;79;21201;-57
2023/04/03 07:03:06;;;;;;;10.03;6.75;;;;;;;9.99;71.77;99700.81;1800598;78;21279;-59
2023/04/03 07:06:15;;;;;;;11.00;8.05;;;;;;;10.10;71.79;99691.62;1766371;79;21200;-58
2023/04/03 07:09:22;;;;;;;11.78;9.45;;;;;;;10.19;71.72;99689.64;1760365;81;21280;-58
2023/04/03 07:12:29;;;;;;;10.53;8.18;;;;;;;10.27;71.63;99696.37;1764886;79;21197;-58
2023/04/03 07:15:36;;;;;;;12.03;7.70;;;;;;;10.35;71.64;99690.80;1734949;81;21784;-57
2023/04/03 07:18:44;;;;;;;11.35;7.47;;;;;;;10.38;71.56;99692.64;1735175;82;21212;-59
2023/04/03 07:21:52;;;;;;;10.00;6.97;;;;;;;10.44;71.59;99694.61;1697394;83;21303;-58
2023/04/03 07:24:59;;;;;;;10.53;7.12;;;;;;;10.47;71.59;99687.38;1732457;82;21201;-58
2023/04/03 07:28:05;;;;;;;9.95;8.20;;;;;;;10.53;71.60;99685.23;1798706;79;21776;-59
2023/04/03 07:31:15;;;;;;;13.70;7.87;;;;;;;10.58;71.50;99690.67;1771406;79;21204;-58
2023/04/03 07:34:20;;;;;;;14.78;9.25;;;;;;;10.55;71.38;99694.11;1771626;80;21193;-57
2023/04/03 07:37:26;;;;;;;10.20;7.30;;;;;;;10.60;71.48;99693.53;1772434;80;21971;-57
2023/04/03 07:40:31;;;;;;;9.23;6.90;;;;;;;10.68;71.55;99698.03;1772966;80;21257;-58
2023/04/03 07:43:37;;;;;;;25.57;15.38;;;;;;;10.76;71.58;99699.28;1772089;80;21302;-58
2023/04/03 07:46:42;;;;;;;15.38;9.30;;;;;;;10.82;71.51;99705.34;1772049;80;21228;-57
2023/04/03 07:49:48;;;;;;;11.25;6.90;;;;;;;10.82;71.44;99703.98;1773055;80;21192;-58
2023/04/03 07:52:56;;;;;;;9.75;6.58;;;;;;;10.80;71.36;99706.08;1773426;80;21194;-57
2023/04/03 07:56:02;;;;;;;8.13;7.08;;;;;;;10.77;71.36;99707.30;1772818;80;21240;-58
2023/04/03 07:59:10;;;;;;;9.35;7.60;;;;;;;10.79;71.40;99711.20;1773134;80;21217;-57
2023/04/03 08:02:18;;;;;;;11.30;7.50;;;;;;;10.78;71.50;99708.16;1772861;79;21391;-57
2023/04/03 08:05:27;;;;;;;12.75;7.53;;;;;;;10.79;71.48;99705.73;1742844;82;21219;-59
2023/04/03 08:08:33;;;;;;;9.70;7.05;;;;;;;10.79;71.47;99718.05;1783514;80;21712;-57
2023/04/03 08:11:39;;;;;;;13.70;8.68;;;;;;;10.73;71.37;99711.98;1772521;80;21351;-58
2023/04/03 08:14:45;;;;;;;14.80;8.75;;;;;;;10.63;71.29;99714.17;1772503;80;21181;-58
2023/04/03 08:17:53;;;;;;;13.60;10.05;;;;;;;10.56;71.33;99716.32;1772927;79;21181;-57
2023/04/03 08:21:00;;;;;;;22.62;15.58;;;;;;;10.58;71.52;99718.04;1773339;79;21288;-57
2023/04/03 08:24:08;;;;;;;17.98;12.78;;;;;;;10.65;71.71;99720.31;1784332;79;21189;-58
2023/04/03 08:27:09;;;;;;;18.42;11.63;;;;;;;10.74;71.80;99717.27;1794397;79;21339;-57
2023/04/03 08:30:15;;;;;;;57.90;26.55;;;;;;;10.77;71.78;99718.76;1802783;79;21241;-58
2023/04/03 08:33:22;;;;;;;17.62;11.57;;;;;;;10.75;71.74;99720.87;1802724;79;21197;-58
2023/04/03 08:36:34;;;;;;;17.12;11.12;;;;;;;10.81;71.87;99729.67;1802625;79;21245;-57
2023/04/03 08:39:39;;;;;;;14.15;10.23;;;;;;;10.85;71.88;99724.98;1799785;79;21734;-56
2023/04/03 08:43:06;;;;;;;15.80;10.30;;;;;;;10.91;71.85;99734.32;1770409;80;21276;-59
2023/04/03 08:46:13;;;;;;;14.83;9.65;;;;;;;10.93;71.85;99732.22;1753245;80;21216;-58
2023/04/03 08:49:33;;;;;;;13.08;8.63;;;;;;;10.98;71.89;99729.23;1770733;80;21347;-57
2023/04/03 08:52:56;;;;;;;14.60;8.88;;;;;;;10.98;71.74;99731.97;1770277;80;21233;-60
2023/04/03 08:56:02;;;;;;;12.37;8.73;;;;;;;10.94;71.81;99733.93;1770595;80;21189;-57
2023/04/03 08:59:16;;;;;;;12.33;8.78;;;;;;;10.92;71.83;99732.76;1771502;79;21208;-58
2023/04/03 09:02:28;;;;;;;;;;;;;;;10.87;71.85;99743.44;1780765;79;21236;-58
2023/04/03 09:06:02;;;;;;;12.33;6.97;;;;;;;10.84;71.88;99749.81;1802496;79;20248;-58
2023/04/03 09:09:22;;;;;;;8.63;6.62;;;;;;;10.81;71.90;99751.57;1783502;79;21166;-57
2023/04/03 09:12:38;;;;;;;9.93;6.42;;;;;;;10.76;71.89;99753.52;1801955;78;21193;-57
2023/04/03 09:15:44;;;;;;;7.87;6.25;;;;;;;10.75;71.95;99744.13;1802152;78;21698;-57
2023/04/03 09:18:53;;;;;;;8.03;6.28;;;;;;;10.69;71.90;99755.31;1795369;79;21374;-57
2023/04/03 09:22:00;;;;;;;8.20;5.47;;;;;;;10.66;71.90;99754.84;1802685;79;21193;-57
2023/04/03 09:25:30;;;;;;;17.35;10.05;;;;;;;10.66;72.02;99754.33;1802559;79;21789;-58
2023/04/03 09:28:35;;;;;;;7.65;5.90;;;;;;;10.67;72.02;99766.14;1774237;79;21182;-58
2023/04/03 09:31:49;;;;;;;9.98;6.60;;;;;;;10.66;72.03;99763.05;1795375;79;21806;-57
2023/04/03 09:34:55;;;;;;;6.90;5.80;;;;;;;10.63;72.03;99767.03;1766188;79;21622;-58
2023/04/03 09:38:18;;;;;;;8.08;5.72;;;;;;;10.60;72.08;99767.42;1804234;79;21201;-57
2023/04/03 09:41:26;;;;;;;9.98;5.97;;;;;;;10.60;72.11;99766.05;1804066;79;21745;-58
2023/04/03 09:44:42;;;;;;;8.10;6.03;;;;;;;10.63;72.14;99771.14;1742836;81;21208;-58
2023/04/03 09:47:49;;;;;;;7.90;5.37;;;;;;;10.66;72.21;99767.16;1772775;80;21438;-58
2023/04/03 09:51:04;;;;;;;7.67;5.62;;;;;;;10.74;72.35;99768.42;1778397;79;21789;-57
2023/04/03 09:54:43;;;;;;;8.55;5.87;;;;;;;10.82;72.33;99774.65;1765369;80;21264;-59
2023/04/03 09:57:51;;;;;;;14.25;5.83;;;;;;;10.85;72.18;99772.03;1803544;79;21334;-58
2023/04/03 10:01:03;;;;;;;9.35;5.00;;;;;;;10.87;72.23;99772.70;1764774;81;21272;-57
2023/04/03 10:04:21;;;;;;;7.62;4.72;;;;;;;10.99;72.42;99769.80;1803981;79;21559;-58
2023/04/03 10:07:42;;;;;;;6.67;4.45;;;;;;;11.10;72.31;99772.03;1803201;79;21268;-58
2023/04/03 10:10:55;;;;;;;6.65;4.67;;;;;;;11.17;72.28;99773.80;1765802;81;21275;-59
2023/04/03 10:14:08;;;;;;;6.37;4.50;;;;;;;11.21;72.20;99775.62;1779547;79;21229;-59
2023/04/03 10:17:28;;;;;;;7.95;5.35;;;;;;;11.31;72.32;99778.88;1771917;80;21208;-58
2023/04/03 10:20:54;;;;;;;7.42;4.92;;;;;;;11.35;72.27;99773.34;1772408;80;21700;-58
2023/04/03 10:24:02;;;;;;;6.62;4.60;;;;;;;11.29;72.06;99775.50;1718295;82;21342;-58
2023/04/03 10:27:51;;;;;;;5.53;4.33;;;;;;;11.29;72.17;99781.81;1718047;82;21241;-57
2023/04/03 10:31:18;;;;;;;6.42;4.35;;;;;;;11.40;72.30;99774.98;1771415;81;21287;-57
2023/04/03 10:34:37;;;;;;;5.90;4.05;;;;;;;11.55;72.32;99781.23;1746115;79;21189;-58
2023/04/03 10:38:06;;;;;;;6.30;3.92;;;;;;;11.63;72.16;99787.47;1774648;78;21204;-58
2023/04/03 10:41:24;;;;;;;6.83;5.12;;;;;;;11.67;72.01;99787.38;1787119;80;21200;-58
2023/04/03 10:45:00;;;;;;;5.62;4.12;;;;;;;11.73;72.05;99793.44;1798506;79;21187;-60
2023/04/03 10:48:47;;;;;;;6.35;4.37;;;;;;;11.74;71.96;99794.30;1798799;79;21189;-58
2023/04/03 10:52:00;;;;;;;4.70;4.00;;;;;;;11.72;71.88;99792.27;1797001;80;21212;-58
2023/04/03 10:55:24;;;;;;;;;;;;;;;11.77;72.05;99795.27;1777503;79;21713;-58
2023/04/03 10:58:42;;;;;;;5.03;3.40;;;;;;;11.75;71.94;99805.58;1773984;80;20207;-59
2023/04/03 11:01:50;;;;;;;7.35;5.62;;;;;;;11.68;71.91;99802.81;1788219;79;21208;-59
2023/04/03 11:04:58;;;;;;;6.42;4.53;;;;;;;11.73;72.09;99800.30;1776491;80;21173;-58
2023/04/03 11:08:07;;;;;;;5.50;4.15;;;;;;;11.85;72.19;99797.88;1789545;80;21319;-58
2023/04/03 11:11:16;;;;;;;5.87;3.58;;;;;;;11.98;72.20;99798.84;1798764;78;21216;-58
2023/04/03 11:14:40;;;;;;;4.60;3.85;;;;;;;11.97;71.84;99801.80;1770778;80;21244;-57
2023/04/03 11:18:01;;;;;;;5.58;3.70;;;;;;;12.07;71.96;99799.53;1766672;81;21252;-58
2023/04/03 11:21:15;;;;;;;4.85;3.60;;;;;;;12.23;72.00;99802.48;1766702;81;21180;-61
2023/04/03 11:24:35;;;;;;;3.20;2.65;;;;;;;12.40;72.03;99796.48;1767685;80;21255;-60
2023/04/03 11:27:58;;;;;;;5.10;3.65;;;;;;;12.53;71.92;99793.83;1766617;80;21243;-60
2023/04/03 11:31:45;;;;;;;4.72;3.62;;;;;;;12.48;71.60;99797.70;1768785;80;21251;-61
2023/04/03 11:34:56;;;;;;;6.05;4.33;;;;;;;12.23;71.25;99804.72;1788237;80;21201;-61
2023/04/03 11:38:03;;;;;;;4.53;3.50;;;;;;;12.03;71.47;99807.85;1795188;78;21480;-61
2023/04/03 11:41:10;;;;;;;6.15;3.98;;;;;;;11.91;71.51;99804.79;1786074;79;21174;-61
2023/04/03 11:44:45;;;;;;;5.60;2.60;;;;;;;11.92;71.79;99813.88;1797272;79;21252;-62
2023/04/03 11:47:55;;;;;;;6.83;4.40;;;;;;;12.03;72.01;99806.48;1798036;79;21836;-62
2023/04/03 11:51:06;;;;;;;8.90;4.58;;;;;;;12.21;72.19;99809.55;1785204;79;21311;-61
2023/04/03 11:54:53;;;;;;;3.70;2.80;;;;;;;12.31;72.14;99810.05;1772306;79;21213;-62
2023/04/03 11:58:09;;;;;;;3.33;2.62;;;;;;;12.28;71.79;99815.09;1784267;79;21174;-61
2023/04/03 12:01:17;;;;;;;4.33;3.40;;;;;;;12.26;71.84;99811.72;1782900;78;21228;-61
2023/04/03 12:04:24;;;;;;;4.72;2.60;;;;;;;12.18;71.60;99818.19;1772742;79;21730;-62
2023/04/03 12:07:31;;;;;;;4.60;3.00;;;;;;;12.15;71.69;99822.70;1770072;80;21707;-61
2023/04/03 12:10:37;;;;;;;4.87;3.10;;;;;;;12.15;71.83;99824.08;1777570;79;21213;-61
2023/04/03 12:14:08;;;;;;;4.08;3.35;;;;;;;12.18;71.87;99824.22;1770281;81;21260;-61
2023/04/03 12:17:19;;;;;;;3.62;2.90;;;;;;;12.17;71.89;99830.22;1769409;80;21257;-60
2023/04/03 12:21:03;;;;;;;4.90;3.40;;;;;;;12.08;71.73;99834.17;1763568;79;21805;-61
2023/04/03 12:24:19;;;;;;;4.70;3.02;;;;;;;12.07;71.88;99839.31;1769033;80;21193;-61
2023/04/03 12:27:43;;;;;;;4.35;2.98;;;;;;;11.96;71.72;99839.84;1781651;79;21698;-61
2023/04/03 12:30:50;;;;;;;3.75;3.20;;;;;;;11.86;71.76;99840.19;1786303;79;21843;-62
2023/04/03 12:34:10;;;;;;;5.47;3.75;;;;;;;11.81;71.87;99837.18;1771848;79;21237;-61
2023/04/03 12:37:58;;;;;;;7.35;4.10;;;;;;;11.78;71.89;99836.75;1770954;80;21236;-62
2023/04/03 12:41:32;;;;;;;6.08;3.55;;;;;;;11.77;71.85;99844.63;1773604;79;21244;-61
2023/04/03 12:45:11;;;;;;;6.30;3.77;;;;;;;11.71;71.79;99839.94;1727962;81;21216;-62
2023/04/03 12:48:28;;;;;;;5.97;3.83;;;;;;;11.75;71.99;99839.86;1786035;79;21693;-61
2023/04/03 12:51:49;;;;;;;11.70;6.75;;;;;;;11.78;71.93;99842.23;1794040;79;21237;-63
2023/04/03 12:54:56;;;;;;;8.23;4.83;;;;;;;11.79;71.80;99835.19;1778833;79;21217;-62
2023/04/03 12:58:02;;;;;;;6.40;4.25;;;;;;;11.73;71.76;99850.20;1769336;79;21586;-62
2023/04/03 13:01:18;;;;;;;5.50;3.37;;;;;;;11.76;71.92;99848.43;1769348;79;21245;-60
2023/04/03 13:04:25;;;;;;;4.85;3.80;;;;;;;11.80;72.05;99851.09;1774729;79;21272;-62
2023/04/03 13:07:34;;;;;;;9.73;5.40;;;;;;;11.84;72.12;99855.16;1704490;84;21224;-61
2023/04/03 13:10:43;;;;;;;6.33;3.62;;;;;;;11.87;72.03;99857.50;1771672;79;21727;-62
2023/04/03 13:14:08;;;;;;;5.00;3.50;;;;;;;11.80;71.82;99849.20;1672710;84;21197;-62
2023/04/03 13:17:24;;;;;;;5.15;4.05;;;;;;;11.75;71.78;99861.28;1771343;79;21221;-62
2023/04/03 13:20:40;;;;;;;6.00;4.28;;;;;;;11.63;71.72;99857.89;1770396;79;21201;-61
2023/04/03 13:23:49;;;;;;;7.90;4.55;;;;;;;11.54;71.69;99858.48;1770403;80;21280;-60
2023/04/03 13:27:00;;;;;;;5.30;3.72;;;;;;;11.46;71.73;99866.01;1734224;81;21228;-62
2023/04/03 13:30:06;;;;;;;5.97;4.40;;;;;;;11.44;71.95;99868.95;1771130;79;21744;-62
2023/04/03 13:33:31;;;;;;;5.78;4.60;;;;;;;11.44;71.93;99859.86;1736239;81;21161;-63
2023/04/03 13:37:00;;;;;;;5.05;3.67;;;;;;;11.47;72.01;99878.15;1784719;79;21452;-62
2023/04/03 13:40:19;;;;;;;6.97;4.03;;;;;;;11.52;72.11;99877.05;1764330;79;21354;-62
2023/04/03 13:43:33;;;;;;;5.05;3.65;;;;;;;11.49;71.97;99877.95;1745786;80;21224;-61
2023/04/03 13:46:40;;;;;;;4.95;3.62;;;;;;;11.43;71.85;99881.47;1760118;81;21266;-61
2023/04/03 13:49:50;;;;;;;6.28;4.00;;;;;;;11.46;72.06;99883.31;1758829;81;21211;-61
2023/04/03 13:53:04;;;;;;;4.80;3.50;;;;;;;11.48;72.06;99885.31;1760139;80;21180;-61
2023/04/03 13:56:15;;;;;;;4.45;3.40;;;;;;;11.49;72.09;99893.89;1691981;83;21235;-62
2023/04/03 13:59:25;;;;;;;4.22;3.25;;;;;;;11.56;72.15;99891.22;1784606;79;21603;-62
2023/04/03 14:02:41;;;;;;;4.33;3.50;;;;;;;11.59;72.10;99890.83;1762580;80;21207;-62
2023/04/03 14:05:47;;;;;;;4.83;3.58;;;;;;;11.62;72.00;99885.78;1788027;80;22235;-62
2023/04/03 14:08:55;;;;;;;5.55;4.03;;;;;;;11.64;71.91;99892.47;1789248;79;21175;-62
2023/04/03 14:12:07;;;;;;;4.55;3.25;;;;;;;11.63;71.88;99896.27;1789965;78;21365;-63
2023/04/03 14:15:33;;;;;;;4.70;3.98;;;;;;;11.56;71.69;99899.45;1790215;79;21184;-63
2023/04/03 14:18:40;;;;;;;4.58;3.72;;;;;;;11.49;71.78;99909.47;1789772;78;21176;-62
2023/04/03 14:21:40;;;;;;;11.30;8.18;;;;;;;11.44;71.85;99905.95;1767871;80;21779;-62
2023/04/03 14:24:48;;;;;;;17.05;15.28;;;;;;;11.42;71.87;99910.77;1790024;78;21204;-62
2023/04/03 14:27:55;;;;;;;18.67;15.32;;;;;;;11.40;72.09;99909.27;1789921;78;21169;-63
2023/04/03 14:31:00;;;;;;;8.50;6.25;;;;;;;11.40;72.12;99918.31;1790746;80;21232;-62
2023/04/03 14:34:08;;;;;;;9.15;6.03;;;;;;;11.38;72.11;99920.42;1790355;80;21204;-62
2023/04/03 14:37:22;;;;;;;8.03;4.42;;;;;;;11.36;72.23;99918.90;1790557;79;21212;-63
2023/04/03 14:40:33;;;;;;;7.58;4.80;;;;;;;11.33;72.26;99927.00;1793483;78;21166;-62
2023/04/03 14:43:39;;;;;;;8.78;5.97;;;;;;;11.29;72.31;99924.84;1789739;79;21201;-64
2023/04/03 14:46:50;;;;;;;11.03;7.80;;;;;;;11.27;72.39;99926.40;1783224;79;21714;-62
2023/04/03 14:49:57;;;;;;;14.20;9.30;;;;;;;11.27;72.48;99930.51;1787981;79;21166;-64
2023/04/03 14:53:06;;;;;;;11.65;7.83;;;;;;;11.29;72.56;99935.80;1781559;79;21548;-62
2023/04/03 14:56:30;;;;;;;10.55;6.40;;;;;;;11.28;72.61;99933.56;1783671;78;21311;-63
2023/04/03 14:59:36;;;;;;;9.75;4.67;;;;;;;11.25;72.62;99933.09;1780861;79;21249;-62